< Typhoon 199304 1993 Season Typhoon 199306 >
Typhoon 199305 (OFELIA)
General InformationDetailed Track InformationTrack Information on Google MapsList of All Images || Disaster Info.ResourceGoogle EarthGE AnimationAtom FeedGeoJSON
Detalied Best Track Wind (Time Zone = UTC)
Year Month Day Hour Lat. Long. Wind (kt) Gust (kt) Direc. of Major Storm Axis Radius of Major Storm Axis (nm) Radius of Minor Storm Axis (nm) Direc. of Major Gale Axis Radius of Major Gale Axis (nm) Radius of Minor Gale Axis (nm) Image
1993 7 24 18 16.8 138.5 0 0 - - - - - - Image
1993 7 25 00 18.6 138.3 0 0 - - - - - - Image
1993 7 25 06 20.1 137.5 0 0 - - - - - - Image
1993 7 25 12 21.4 136.4 0 0 - - - - - - Image
1993 7 25 18 22.9 135.3 40 0 - - - symmetric 90 90 Image
1993 7 26 00 24.7 134.3 40 0 - - - NE 180 90 Image
1993 7 26 03 25.1 133.9 40 0 - - - NE 200 90 Image
1993 7 26 06 25.5 133.5 45 0 - - - NE 200 90 Image
1993 7 26 09 25.9 133.1 45 0 - - - NE 200 90 Image
1993 7 26 12 26.3 132.9 45 0 - - - NE 200 90 Image
1993 7 26 15 26.7 132.7 45 0 - - - NE 200 90 Image
1993 7 26 18 28.2 131.9 45 0 - - - E 200 80 Image
1993 7 26 21 29.4 131.5 45 0 - - - E 200 80 Image
1993 7 27 00 30.7 131.2 45 0 - - - E 180 60 Image
1993 7 27 02 31.2 131.0 40 0 - - - E 150 50 Image
1993 7 27 03 31.6 131.1 40 0 - - - E 150 50 Image
1993 7 27 06 32.9 131.5 40 0 - - - E 150 50 Image
1993 7 27 08 33.8 131.6 40 0 - - - E 120 60 Image
1993 7 27 09 34.3 131.9 40 0 - - - E 120 60 Image
1993 7 27 12 35.7 132.7 35 0 - - - symmetric 90 90 Image
1993 7 27 18 38.0 134.0 0 0 - - - - - - Image
1993 7 28 00 40.0 135.0 0 0 - - - - - - Image
1993 7 28 06 41.0 135.0 0 0 - - - - - - Image
1993 7 28 12 41.5 135.5 0 0 - - - - - - Image
1993 7 28 18 41.5 135.5 0 0 - - - - - - Image
1993 7 29 00 41.5 135.5 0 0 - - - - - - Image
1993 7 29 06 42.0 135.5 0 0 - - - - - - Image
Japan Meteorological Agency Best Track Data | Correction Date : 1994-01-10
< Typhoon 199304 1993 Season Typhoon 199306 >

Help